createdAt,value
2019-05-23T00:05:05.818Z,12.83
2019-05-23T00:10:35.669Z,14.80
2019-05-23T00:15:58.692Z,14.20
2019-05-23T00:21:05.694Z,13.20
2019-05-23T00:26:11.860Z,14.10
2019-05-23T00:31:24.040Z,13.27
2019-05-23T00:36:31.627Z,12.27
2019-05-23T00:41:39.554Z,13.33
2019-05-23T00:46:45.373Z,12.47
2019-05-23T00:51:51.151Z,12.20
2019-05-23T00:56:58.825Z,11.90
2019-05-23T01:02:06.068Z,13.33
2019-05-23T01:07:12.614Z,13.00
2019-05-23T01:12:19.640Z,12.67
2019-05-23T01:17:27.455Z,13.13
2019-05-23T01:22:33.318Z,11.83
2019-05-23T01:27:38.899Z,12.00
2019-05-23T01:32:47.740Z,11.47
2019-05-23T01:37:53.518Z,11.93
2019-05-23T01:42:59.976Z,11.63
2019-05-23T01:48:05.978Z,11.37
2019-05-23T01:53:12.538Z,9.97
2019-05-23T01:58:18.017Z,11.77
2019-05-23T02:03:23.860Z,10.10
2019-05-23T02:08:32.086Z,11.90
2019-05-23T02:13:37.984Z,10.37
2019-05-23T02:18:43.631Z,11.03
2019-05-23T02:23:49.690Z,10.27
2019-05-23T02:28:55.412Z,10.07
2019-05-23T02:34:01.560Z,9.47
2019-05-23T02:39:26.079Z,10.13
2019-05-23T02:44:34.146Z,8.53
2019-05-23T02:49:39.385Z,9.27
2019-05-23T02:54:44.673Z,9.50
2019-05-23T02:59:53.005Z,10.17
2019-05-23T03:04:59.863Z,9.73
2019-05-23T03:10:07.390Z,9.70
2019-05-23T03:15:15.911Z,8.80
2019-05-23T03:20:22.179Z,9.60
2019-05-23T03:26:15.585Z,9.40
2019-05-23T03:31:31.557Z,9.47
2019-05-23T03:36:35.673Z,9.27
2019-05-23T03:41:42.505Z,10.17
2019-05-23T03:46:49.955Z,10.10
2019-05-23T03:51:55.655Z,7.63
2019-05-23T03:57:02.825Z,8.53
2019-05-23T04:02:09.791Z,9.47
2019-05-23T04:07:15.731Z,8.80
2019-05-23T04:12:21.050Z,8.93
2019-05-23T04:17:26.620Z,8.77
2019-05-23T04:22:31.817Z,9.03
2019-05-23T04:27:37.899Z,8.47
2019-05-23T04:32:43.743Z,8.60
2019-05-23T04:37:49.250Z,7.83
2019-05-23T04:42:54.693Z,8.57
2019-05-23T04:48:00.319Z,8.23
2019-05-23T04:53:06.733Z,8.13
2019-05-23T04:58:13.721Z,7.10
2019-05-23T05:03:19.832Z,7.90
2019-05-23T05:08:25.319Z,7.23
2019-05-23T05:13:30.766Z,7.97
2019-05-23T05:18:37.557Z,8.00
2019-05-23T05:23:42.813Z,8.20
2019-05-23T05:28:48.097Z,8.27
2019-05-23T05:33:53.371Z,8.17
2019-05-23T05:38:59.578Z,8.03
2019-05-23T05:44:06.905Z,7.63
2019-05-23T05:49:12.178Z,8.73
2019-05-23T05:54:17.351Z,8.20
2019-05-23T05:59:22.703Z,7.53
2019-05-23T06:04:28.161Z,7.43
2019-05-23T06:09:35.163Z,8.53
2019-05-23T06:14:41.067Z,8.10
2019-05-23T06:19:46.441Z,7.93
2019-05-23T06:24:56.088Z,6.70
2019-05-23T06:30:00.379Z,7.33
2019-05-23T06:35:07.437Z,7.17
2019-05-23T06:40:13.904Z,6.43
2019-05-23T06:45:19.882Z,6.67
2019-05-23T06:50:26.041Z,6.50
2019-05-23T06:55:31.728Z,7.83
2019-05-23T07:00:37.524Z,7.10
2019-05-23T07:05:43.945Z,6.03
2019-05-23T07:10:49.279Z,6.60
2019-05-23T07:15:54.662Z,7.07
2019-05-23T07:20:59.924Z,6.17
2019-05-23T07:26:05.385Z,6.07
2019-05-23T07:31:10.829Z,5.13
2019-05-23T07:36:16.440Z,5.87
2019-05-23T07:41:21.928Z,5.07
2019-05-23T07:46:48.097Z,5.50
2019-05-23T07:51:59.874Z,5.63
2019-05-23T07:57:09.002Z,5.30
2019-05-23T08:02:25.889Z,5.33
2019-05-23T08:07:33.536Z,5.43
2019-05-23T08:12:40.565Z,8.10
2019-05-23T08:17:46.464Z,7.33
2019-05-23T08:22:51.909Z,7.80
2019-05-23T08:27:57.092Z,7.50
2019-05-23T08:33:03.103Z,8.87
2019-05-23T08:38:08.962Z,7.50
2019-05-23T08:43:14.595Z,8.20
2019-05-23T08:48:21.539Z,6.90
2019-05-23T08:53:27.137Z,7.10
2019-05-23T08:58:32.564Z,7.80
2019-05-23T09:03:38.652Z,8.77
2019-05-23T09:08:44.365Z,7.33
2019-05-23T09:13:49.647Z,6.60
2019-05-23T09:18:55.279Z,6.53
2019-05-23T09:24:00.607Z,7.03
2019-05-23T09:29:07.682Z,6.60
2019-05-23T09:34:13.047Z,6.37
2019-05-23T09:39:22.258Z,7.17
2019-05-23T09:44:27.566Z,6.33
2019-05-23T09:49:33.054Z,7.00
2019-05-23T09:54:39.708Z,5.90
2019-05-23T09:59:44.839Z,5.67
2019-05-23T10:04:50.328Z,5.30
2019-05-23T10:09:55.559Z,4.43
2019-05-23T10:15:01.748Z,4.73
2019-05-23T10:20:08.390Z,3.03
2019-05-23T10:25:13.643Z,3.60
2019-05-23T10:30:20.863Z,4.57
2019-05-23T10:35:26.695Z,4.27
2019-05-23T10:40:32.339Z,5.43
2019-05-23T10:45:37.992Z,5.57
2019-05-23T10:50:45.593Z,6.27
2019-05-23T10:55:50.995Z,4.83
2019-05-23T11:00:56.240Z,4.70
2019-05-23T11:06:15.064Z,5.80
2019-05-23T11:11:13.933Z,4.77
2019-05-23T11:16:16.419Z,4.10
2019-05-23T11:21:22.126Z,3.73
2019-05-23T11:26:27.582Z,3.47
2019-05-23T11:31:33.612Z,4.93
2019-05-23T11:36:39.010Z,3.87
2019-05-23T11:41:45.385Z,4.30
2019-05-23T11:46:51.299Z,4.13
2019-05-23T11:51:56.938Z,4.23
2019-05-23T11:57:02.788Z,3.23
2019-05-23T12:02:31.612Z,2.80
2019-05-23T12:07:38.625Z,3.43
2019-05-23T12:12:43.943Z,2.33
2019-05-23T12:17:50.022Z,2.70
2019-05-23T12:22:55.555Z,2.70
2019-05-23T12:28:01.613Z,1.70
2019-05-23T12:33:35.530Z,2.10
2019-05-23T12:38:44.395Z,2.03
2019-05-23T12:43:49.623Z,2.20
2019-05-23T12:49:02.150Z,1.87
2019-05-23T12:54:08.165Z,2.13
2019-05-23T12:59:14.406Z,2.40
2019-05-23T13:04:20.906Z,2.00
2019-05-23T13:09:26.919Z,2.60
2019-05-23T13:14:33.597Z,2.57
2019-05-23T13:19:43.103Z,2.30
2019-05-23T13:24:52.571Z,2.53
2019-05-23T13:29:58.760Z,2.10
2019-05-23T13:35:05.773Z,2.27
2019-05-23T13:40:11.922Z,2.10
2019-05-23T13:45:19.675Z,2.40
2019-05-23T13:50:25.795Z,2.50
2019-05-23T13:55:33.342Z,2.30
2019-05-23T14:00:42.084Z,2.37
2019-05-23T14:05:49.331Z,2.07
2019-05-23T14:10:55.203Z,2.20
2019-05-23T14:16:01.371Z,2.10
2019-05-23T14:21:06.795Z,2.40
2019-05-23T14:26:14.363Z,2.50
2019-05-23T14:31:23.170Z,1.70
2019-05-23T14:36:45.958Z,2.37
2019-05-23T14:41:57.732Z,2.10
2019-05-23T14:47:23.333Z,1.80
2019-05-23T14:52:35.523Z,2.50
2019-05-23T14:57:41.493Z,1.80
2019-05-23T15:02:47.649Z,1.47
2019-05-23T15:07:56.135Z,1.30
2019-05-23T15:13:02.879Z,1.77
2019-05-23T15:18:09.791Z,1.90
2019-05-23T15:23:14.995Z,1.80
2019-05-23T15:28:20.617Z,2.03
2019-05-23T15:33:25.937Z,2.20
2019-05-23T15:38:31.120Z,2.17
2019-05-23T15:43:36.397Z,2.30
2019-05-23T15:48:43.920Z,2.10
2019-05-23T15:54:08.134Z,2.60
2019-05-23T15:59:24.322Z,2.07
2019-05-23T16:04:30.027Z,2.50
2019-05-23T16:09:36.970Z,1.90
2019-05-23T16:14:42.658Z,2.23
2019-05-23T16:19:47.846Z,2.00
2019-05-23T16:24:53.155Z,2.50
2019-05-23T16:29:58.685Z,1.77
2019-05-23T16:35:04.528Z,2.43
2019-05-23T16:40:10.337Z,2.27
2019-05-23T16:45:22.275Z,2.03
2019-05-23T16:50:27.515Z,2.30
2019-05-23T16:55:45.541Z,1.87
2019-05-23T17:01:00.761Z,2.30
2019-05-23T17:06:12.957Z,2.00
2019-05-23T17:11:36.836Z,2.47
2019-05-23T17:17:05.460Z,2.00
2019-05-23T17:22:27.644Z,2.43
2019-05-23T17:28:07.229Z,2.80
2019-05-23T17:33:14.429Z,2.40
2019-05-23T17:38:19.991Z,2.40
2019-05-23T17:43:25.178Z,2.80
2019-05-23T17:48:30.761Z,2.13
2019-05-23T17:53:38.379Z,1.97
2019-05-23T17:58:43.892Z,1.70
2019-05-23T18:03:49.488Z,1.40
2019-05-23T18:08:55.094Z,1.87
2019-05-23T18:14:00.829Z,1.47
2019-05-23T18:19:06.429Z,1.47
2019-05-23T18:24:11.764Z,1.43
2019-05-23T18:29:17.554Z,1.43
2019-05-23T18:34:24.996Z,1.83
2019-05-23T18:39:30.798Z,1.43
2019-05-23T18:44:36.385Z,1.70
2019-05-23T18:49:41.827Z,1.80
2019-05-23T18:54:46.991Z,1.63
2019-05-23T18:59:52.321Z,1.53
2019-05-23T19:04:59.014Z,1.97
2019-05-23T19:10:05.269Z,1.70
2019-05-23T19:15:11.065Z,2.00
2019-05-23T19:20:16.658Z,1.87
2019-05-23T19:25:23.990Z,2.07
2019-05-23T19:30:29.385Z,2.00
2019-05-23T19:35:37.463Z,2.63
2019-05-23T19:40:42.658Z,2.00
2019-05-23T19:45:48.021Z,2.27
2019-05-23T19:50:54.120Z,2.40
2019-05-23T19:55:59.399Z,2.47
2019-05-23T20:01:06.789Z,2.37
2019-05-23T20:06:14.231Z,2.33
2019-05-23T20:11:19.662Z,2.37
2019-05-23T20:16:24.980Z,2.47
2019-05-23T20:21:30.320Z,2.60
2019-05-23T20:26:35.648Z,2.70
2019-05-23T20:31:40.821Z,2.80
2019-05-23T20:36:45.990Z,3.23
2019-05-23T20:41:51.235Z,2.70
2019-05-23T20:46:56.420Z,3.53
2019-05-23T20:52:01.833Z,3.03
2019-05-23T20:57:07.015Z,3.07
2019-05-23T21:02:12.902Z,3.47
2019-05-23T21:07:18.592Z,3.13
2019-05-23T21:12:30.244Z,3.43
2019-05-23T21:17:31.186Z,3.57
2019-05-23T21:22:36.707Z,4.13
2019-05-23T21:27:41.902Z,4.57
2019-05-23T21:32:47.294Z,3.27
2019-05-23T21:37:52.663Z,3.90
2019-05-23T21:42:58.004Z,3.90
2019-05-23T21:48:03.574Z,4.20
2019-05-23T21:53:10.540Z,3.50
2019-05-23T21:58:16.085Z,3.90
2019-05-23T22:03:25.382Z,4.03
2019-05-23T22:08:31.500Z,3.90
2019-05-23T22:13:36.958Z,4.00
2019-05-23T22:18:42.120Z,4.13
2019-05-23T22:23:47.611Z,4.20
2019-05-23T22:28:52.934Z,4.57
2019-05-23T22:34:05.435Z,4.37
2019-05-23T22:39:10.818Z,4.50
2019-05-23T22:44:16.154Z,4.20
2019-05-23T22:49:21.445Z,4.13
2019-05-23T22:54:26.908Z,3.33
2019-05-23T22:59:32.326Z,4.20
2019-05-23T23:04:37.681Z,4.10
2019-05-23T23:09:43.288Z,4.30
2019-05-23T23:14:48.543Z,4.07
2019-05-23T23:19:53.931Z,4.17
2019-05-23T23:24:59.297Z,4.10
2019-05-23T23:30:04.974Z,3.90
2019-05-23T23:35:10.214Z,3.67
2019-05-23T23:40:15.906Z,4.10
2019-05-23T23:45:40.012Z,3.83
2019-05-23T23:51:02.989Z,4.27
2019-05-23T23:56:26.307Z,4.50
